createdAt,value
2018-05-21T00:00:45.051Z,98.20
2018-05-21T00:03:13.334Z,98.40
2018-05-21T00:05:41.744Z,98.40
2018-05-21T00:08:10.797Z,97.90
2018-05-21T00:10:39.043Z,97.90
2018-05-21T00:13:08.073Z,98.10
2018-05-21T00:15:37.166Z,98.00
2018-05-21T00:18:05.440Z,98.00
2018-05-21T00:20:33.690Z,98.00
2018-05-21T00:23:01.990Z,98.10
2018-05-21T00:25:30.180Z,98.10
2018-05-21T00:27:58.353Z,98.20
2018-05-21T00:30:26.619Z,98.20
2018-05-21T00:32:54.959Z,98.40
2018-05-21T00:35:23.673Z,98.40
2018-05-21T00:37:51.981Z,98.20
2018-05-21T00:40:20.238Z,98.20
2018-05-21T00:42:48.545Z,98.50
2018-05-21T00:45:16.951Z,98.40
2018-05-21T00:47:45.221Z,98.40
2018-05-21T00:50:14.287Z,98.30
2018-05-21T00:52:43.322Z,98.40
2018-05-21T00:55:23.434Z,98.40
2018-05-21T00:57:51.698Z,98.70
2018-05-21T01:00:19.998Z,98.80
2018-05-21T01:02:49.773Z,98.60
2018-05-21T01:05:18.068Z,98.50
2018-05-21T01:07:46.964Z,98.40
2018-05-21T01:10:15.252Z,98.40
2018-05-21T01:12:44.228Z,98.20
2018-05-21T01:15:12.671Z,98.60
2018-05-21T01:17:40.952Z,97.30
2018-05-21T01:20:09.227Z,98.50
2018-05-21T01:22:37.532Z,98.60
2018-05-21T01:25:06.120Z,98.70
2018-05-21T01:27:34.340Z,98.40
2018-05-21T01:30:02.640Z,98.50
2018-05-21T01:32:30.887Z,98.80
2018-05-21T01:34:59.938Z,97.70
2018-05-21T01:37:28.209Z,97.70
2018-05-21T01:39:56.620Z,98.30
2018-05-21T01:42:25.645Z,98.80
2018-05-21T01:44:53.923Z,98.70
2018-05-21T01:47:22.247Z,98.20
2018-05-21T01:49:52.085Z,98.20
2018-05-21T01:52:21.109Z,98.50
2018-05-21T01:54:49.610Z,98.50
2018-05-21T01:57:17.977Z,98.70
2018-05-21T01:59:46.270Z,99.00
2018-05-21T02:02:14.536Z,98.70
2018-05-21T02:04:42.968Z,98.60
2018-05-21T02:07:11.219Z,99.40
2018-05-21T02:09:39.510Z,99.50
2018-05-21T02:12:07.782Z,99.40
2018-05-21T02:14:37.571Z,98.70
2018-05-21T02:17:06.187Z,98.70
2018-05-21T02:19:35.266Z,98.70
2018-05-21T02:22:03.516Z,98.40
2018-05-21T02:24:32.217Z,98.50
2018-05-21T02:27:00.492Z,98.30
2018-05-21T02:29:28.807Z,97.60
2018-05-21T02:31:57.826Z,97.90
2018-05-21T02:34:26.245Z,97.90
2018-05-21T02:36:54.536Z,98.40
2018-05-21T02:39:22.835Z,98.60
2018-05-21T02:41:51.106Z,98.10
2018-05-21T02:44:19.487Z,97.40
2018-05-21T02:46:47.778Z,98.40
2018-05-21T02:49:16.779Z,98.50
2018-05-21T02:51:45.059Z,98.50
2018-05-21T02:54:13.414Z,98.40
2018-05-21T02:56:41.699Z,98.40
2018-05-21T02:59:10.780Z,98.40
2018-05-21T03:01:39.146Z,98.40
2018-05-21T03:06:42.028Z,98.10
2018-05-21T03:09:10.332Z,98.00
2018-05-21T03:11:38.646Z,97.80
2018-05-21T03:14:06.910Z,98.00
2018-05-21T03:16:35.968Z,98.60
2018-05-21T03:19:04.216Z,98.60
2018-05-21T03:21:32.526Z,98.60
2018-05-21T03:24:00.776Z,99.00
2018-05-21T03:26:29.063Z,99.00
2018-05-21T03:28:57.317Z,98.80
2018-05-21T03:31:25.637Z,97.90
2018-05-21T03:33:54.265Z,97.60
2018-05-21T03:36:22.607Z,97.80
2018-05-21T03:38:52.072Z,99.10
2018-05-21T03:41:20.373Z,99.10
2018-05-21T03:43:48.680Z,99.10
2018-05-21T03:46:17.864Z,98.70
2018-05-21T03:48:46.116Z,98.70
2018-05-21T03:51:15.240Z,99.00
2018-05-21T03:53:44.256Z,99.30
2018-05-21T03:56:13.307Z,97.90
2018-05-21T03:58:54.515Z,97.90
2018-05-21T04:01:35.650Z,98.20
2018-05-21T04:04:03.948Z,98.20
2018-05-21T04:06:33.106Z,98.20
2018-05-21T04:09:01.343Z,98.50
2018-05-21T04:11:29.672Z,98.90
2018-05-21T04:13:58.207Z,98.80
2018-05-21T04:16:27.323Z,99.10
2018-05-21T04:18:55.590Z,99.10
2018-05-21T04:21:24.649Z,98.10
2018-05-21T04:23:53.185Z,98.10
2018-05-21T04:26:21.526Z,98.70
2018-05-21T04:28:49.916Z,99.30
2018-05-21T04:31:19.429Z,99.10
2018-05-21T04:33:48.042Z,99.00
2018-05-21T04:36:16.358Z,98.50
2018-05-21T04:38:44.663Z,99.00
2018-05-21T04:41:13.723Z,99.20
2018-05-21T04:43:42.018Z,99.20
2018-05-21T04:46:10.294Z,99.30
2018-05-21T04:48:39.494Z,99.10
2018-05-21T04:51:07.743Z,99.10
2018-05-21T04:53:36.190Z,98.90
2018-05-21T04:56:04.452Z,99.50
2018-05-21T04:58:32.632Z,99.60
2018-05-21T05:01:01.565Z,99.90
2018-05-21T05:03:29.795Z,99.90
2018-05-21T05:05:58.719Z,99.20
2018-05-21T05:08:26.896Z,99.20
2018-05-21T05:10:55.047Z,99.50
2018-05-21T05:13:24.196Z,99.80
2018-05-21T05:15:52.512Z,99.80
2018-05-21T05:18:21.644Z,99.80
2018-05-21T05:20:50.172Z,99.40
2018-05-21T05:23:19.240Z,99.80
2018-05-21T05:25:49.125Z,99.60
2018-05-21T05:28:17.743Z,99.90
2018-05-21T05:30:45.974Z,99.90
2018-05-21T05:33:15.015Z,99.10
2018-05-21T05:35:43.943Z,99.10
2018-05-21T05:38:12.467Z,99.10
2018-05-21T05:40:40.723Z,99.00
2018-05-21T05:43:11.309Z,98.80
2018-05-21T05:45:40.531Z,99.00
2018-05-21T05:48:08.715Z,98.60
2018-05-21T05:50:37.018Z,98.40
2018-05-21T05:53:05.397Z,98.10
2018-05-21T05:55:33.647Z,98.00
2018-05-21T05:58:01.804Z,98.20
2018-05-21T06:00:30.003Z,98.40
2018-05-21T06:02:58.411Z,97.50
2018-05-21T06:05:26.677Z,97.50
2018-05-21T06:07:55.190Z,97.60
2018-05-21T06:10:24.140Z,98.20
2018-05-21T06:12:52.347Z,98.20
2018-05-21T06:15:20.528Z,98.40
2018-05-21T06:17:48.692Z,98.30
2018-05-21T06:20:16.881Z,98.00
2018-05-21T06:22:45.032Z,97.30
2018-05-21T06:25:13.220Z,97.40
2018-05-21T06:27:42.142Z,96.30
2018-05-21T06:30:11.080Z,95.70
2018-05-21T06:32:40.488Z,95.60
2018-05-21T06:35:08.719Z,95.60
2018-05-21T06:37:36.887Z,95.10
2018-05-21T06:40:05.078Z,96.00
2018-05-21T06:42:34.101Z,93.80
2018-05-21T06:45:02.281Z,93.70
2018-05-21T06:47:30.446Z,93.80
2018-05-21T06:49:58.636Z,93.50
2018-05-21T06:52:26.807Z,94.00
2018-05-21T06:54:55.281Z,93.70
2018-05-21T06:57:23.515Z,93.60
2018-05-21T06:59:51.733Z,93.50
2018-05-21T07:02:19.911Z,93.60
2018-05-21T07:04:48.084Z,92.80
2018-05-21T07:07:16.236Z,93.60
2018-05-21T07:09:44.421Z,92.50
2018-05-21T07:12:12.580Z,92.80
2018-05-21T07:14:41.463Z,92.10
2018-05-21T07:17:09.676Z,92.30
2018-05-21T07:19:37.945Z,92.50
2018-05-21T07:22:06.166Z,92.10
2018-05-21T07:24:35.079Z,90.10
2018-05-21T07:27:03.723Z,90.10
2018-05-21T07:29:32.768Z,91.60
2018-05-21T07:32:00.936Z,90.10
2018-05-21T07:34:29.088Z,90.40
2018-05-21T07:36:57.320Z,87.80
2018-05-21T07:39:25.503Z,86.70
2018-05-21T07:41:53.671Z,84.30
2018-05-21T07:44:21.812Z,84.50
2018-05-21T07:46:49.992Z,86.40
2018-05-21T07:49:18.187Z,85.50
2018-05-21T07:51:46.388Z,86.00
2018-05-21T07:54:14.833Z,83.40
2018-05-21T07:56:43.018Z,85.30
2018-05-21T07:59:11.176Z,83.30
2018-05-21T08:01:39.343Z,82.50
2018-05-21T08:04:07.983Z,82.30
2018-05-21T08:06:36.923Z,85.50
2018-05-21T08:09:06.899Z,85.60
2018-05-21T08:11:35.124Z,83.10
2018-05-21T08:14:03.285Z,77.00
2018-05-21T08:16:31.983Z,77.00
2018-05-21T08:19:00.246Z,75.30
2018-05-21T08:21:29.295Z,75.20
2018-05-21T08:23:58.476Z,74.90
2018-05-21T08:26:26.991Z,74.80
2018-05-21T08:28:55.202Z,75.90
2018-05-21T08:31:23.359Z,74.50
2018-05-21T08:33:52.468Z,71.30
2018-05-21T08:36:20.949Z,71.90
2018-05-21T08:38:49.429Z,74.70
2018-05-21T08:41:17.788Z,73.80
2018-05-21T08:43:45.951Z,73.40
2018-05-21T08:46:14.196Z,75.00
2018-05-21T08:48:44.057Z,74.50
2018-05-21T08:51:12.645Z,74.50
2018-05-21T08:53:41.126Z,75.30
2018-05-21T08:56:10.404Z,73.50
2018-05-21T08:58:38.707Z,73.50
2018-05-21T09:01:08.298Z,75.20
2018-05-21T09:03:37.612Z,72.30
2018-05-21T09:06:06.297Z,74.30
2018-05-21T09:08:34.785Z,74.30
2018-05-21T09:11:03.455Z,72.40
2018-05-21T09:13:31.613Z,75.80
2018-05-21T09:18:34.481Z,72.60
2018-05-21T09:21:02.702Z,74.20
2018-05-21T09:23:30.915Z,73.30
2018-05-21T09:25:59.089Z,74.10
2018-05-21T09:28:27.271Z,72.70
2018-05-21T09:30:57.097Z,71.80
2018-05-21T09:33:25.270Z,71.20
2018-05-21T09:35:54.294Z,70.00
2018-05-21T09:38:23.307Z,69.10
2018-05-21T09:40:51.475Z,69.80
2018-05-21T09:43:19.660Z,68.10
2018-05-21T09:45:47.797Z,66.60
2018-05-21T09:48:15.995Z,67.60
2018-05-21T09:50:44.133Z,68.70
2018-05-21T09:53:12.315Z,67.90
2018-05-21T09:55:40.523Z,68.80
2018-05-21T09:58:09.483Z,67.40
2018-05-21T10:00:37.800Z,69.10
2018-05-21T10:03:05.956Z,68.70
2018-05-21T10:05:34.112Z,63.40
2018-05-21T10:08:02.320Z,64.10
2018-05-21T10:10:30.481Z,67.00
2018-05-21T10:12:58.640Z,66.80
2018-05-21T10:15:26.822Z,65.50
2018-05-21T10:17:54.962Z,62.00
2018-05-21T10:20:23.160Z,61.20
2018-05-21T10:22:51.312Z,63.40
2018-05-21T10:25:19.476Z,61.10
2018-05-21T10:27:48.410Z,62.50
2018-05-21T10:30:16.688Z,62.60
2018-05-21T10:32:44.841Z,61.40
2018-05-21T10:35:13.004Z,59.70
2018-05-21T10:37:41.207Z,63.10
2018-05-21T10:40:09.590Z,60.10
2018-05-21T10:42:37.732Z,60.40
2018-05-21T10:45:05.897Z,62.50
2018-05-21T10:47:34.043Z,61.80
2018-05-21T10:50:02.797Z,59.10
2018-05-21T10:52:30.941Z,59.20
2018-05-21T10:54:59.200Z,58.80
2018-05-21T10:57:28.193Z,59.90
2018-05-21T10:59:56.303Z,59.80
2018-05-21T11:02:24.450Z,61.20
2018-05-21T11:04:52.625Z,61.40
2018-05-21T11:07:21.528Z,58.30
2018-05-21T11:09:49.686Z,58.30
2018-05-21T11:12:18.662Z,57.90
2018-05-21T11:14:46.783Z,57.90
2018-05-21T11:17:14.915Z,58.00
2018-05-21T11:19:43.866Z,56.70
2018-05-21T11:22:12.012Z,56.60
2018-05-21T11:24:40.197Z,57.20
2018-05-21T11:27:08.352Z,58.10
2018-05-21T11:29:41.120Z,55.50
2018-05-21T11:32:09.448Z,55.40
2018-05-21T11:34:37.608Z,56.60
2018-05-21T11:37:05.746Z,56.30
2018-05-21T11:39:33.992Z,58.50
2018-05-21T11:42:02.130Z,54.40
2018-05-21T11:44:30.435Z,53.20
2018-05-21T11:46:58.678Z,54.40
2018-05-21T11:49:28.259Z,54.50
2018-05-21T11:51:56.684Z,53.10
2018-05-21T11:54:24.928Z,51.00
2018-05-21T11:56:53.237Z,45.80
2018-05-21T11:59:21.493Z,48.00
2018-05-21T12:01:51.317Z,49.50
2018-05-21T12:04:19.568Z,49.40
2018-05-21T12:06:47.982Z,50.60
2018-05-21T12:09:16.488Z,51.10
2018-05-21T12:11:45.148Z,46.70
2018-05-21T12:14:13.469Z,49.70
2018-05-21T12:16:42.335Z,47.90
2018-05-21T12:19:10.706Z,49.10
2018-05-21T12:21:40.392Z,49.20
2018-05-21T12:24:09.592Z,49.20
2018-05-21T12:26:37.975Z,49.30
2018-05-21T12:29:06.967Z,48.90
2018-05-21T12:31:35.272Z,47.40
2018-05-21T12:34:03.554Z,46.90
2018-05-21T12:36:31.863Z,49.00
2018-05-21T12:39:00.984Z,47.60
2018-05-21T12:41:30.833Z,47.90
2018-05-21T12:43:59.071Z,47.80
2018-05-21T12:46:27.463Z,47.50
2018-05-21T12:48:56.219Z,45.20
2018-05-21T12:51:24.613Z,45.80
2018-05-21T12:53:52.865Z,45.20
2018-05-21T12:56:21.161Z,44.00
2018-05-21T12:58:49.396Z,42.70
2018-05-21T13:01:17.692Z,45.30
2018-05-21T13:03:45.997Z,44.10
2018-05-21T13:06:14.376Z,46.00
2018-05-21T13:08:42.647Z,44.40
2018-05-21T13:11:10.821Z,43.80
2018-05-21T13:13:38.956Z,44.90
2018-05-21T13:16:07.104Z,43.90
2018-05-21T13:18:35.360Z,43.70
2018-05-21T13:21:03.524Z,43.40
2018-05-21T13:23:31.743Z,40.60
2018-05-21T13:26:00.663Z,45.10
2018-05-21T13:28:29.084Z,45.00
2018-05-21T13:30:57.248Z,42.00
2018-05-21T13:33:25.422Z,42.80
2018-05-21T13:35:53.595Z,43.20
2018-05-21T13:38:21.768Z,42.50
2018-05-21T13:40:49.916Z,40.80
2018-05-21T13:43:18.121Z,42.40
2018-05-21T13:45:46.237Z,43.40
2018-05-21T13:48:14.466Z,39.50
2018-05-21T13:50:42.628Z,40.80
2018-05-21T13:53:10.782Z,43.30
2018-05-21T13:55:38.924Z,42.80
2018-05-21T13:58:07.162Z,41.60
2018-05-21T14:00:35.312Z,38.70
2018-05-21T14:03:03.470Z,38.80
2018-05-21T14:05:31.608Z,40.80
2018-05-21T14:08:00.539Z,40.00
2018-05-21T14:10:28.682Z,40.00
2018-05-21T14:12:56.856Z,39.50
2018-05-21T14:15:25.760Z,38.10
2018-05-21T14:17:53.991Z,38.10
2018-05-21T14:20:23.656Z,38.60
2018-05-21T14:22:51.825Z,38.50
2018-05-21T14:25:20.071Z,34.80
2018-05-21T14:27:48.229Z,34.20
2018-05-21T14:30:16.413Z,35.30
2018-05-21T14:32:44.587Z,38.30
2018-05-21T14:35:12.735Z,41.10
2018-05-21T14:37:40.915Z,37.50
2018-05-21T14:40:09.076Z,36.60
2018-05-21T14:42:37.224Z,36.20
2018-05-21T14:45:05.400Z,35.50
2018-05-21T14:47:33.556Z,37.10
2018-05-21T14:50:02.484Z,37.60
2018-05-21T14:52:30.653Z,37.50
2018-05-21T14:54:58.861Z,37.00
2018-05-21T14:57:26.963Z,36.30
2018-05-21T14:59:55.892Z,38.60
2018-05-21T15:02:24.244Z,38.60
2018-05-21T15:04:52.433Z,36.50
2018-05-21T15:07:20.578Z,36.00
2018-05-21T15:09:49.510Z,35.50
2018-05-21T15:12:17.657Z,35.50
2018-05-21T15:14:45.815Z,35.00
2018-05-21T15:17:14.736Z,37.80
2018-05-21T15:19:42.898Z,37.70
2018-05-21T15:22:11.092Z,38.40
2018-05-21T15:24:39.988Z,39.40
2018-05-21T15:27:08.188Z,39.40
2018-05-21T15:29:36.365Z,37.10
2018-05-21T15:32:04.502Z,37.50
2018-05-21T15:34:32.672Z,38.60
2018-05-21T15:37:00.880Z,39.50
2018-05-21T15:39:29.043Z,37.70
2018-05-21T15:41:57.183Z,39.20
2018-05-21T15:44:25.353Z,36.10
2018-05-21T15:46:54.256Z,37.10
2018-05-21T15:49:22.417Z,37.10
2018-05-21T15:51:50.572Z,35.40
2018-05-21T15:54:19.506Z,41.00
2018-05-21T15:56:48.520Z,36.30
2018-05-21T15:59:16.660Z,36.30
2018-05-21T16:01:44.824Z,36.70
2018-05-21T16:04:12.991Z,36.40
2018-05-21T16:06:41.167Z,35.10
2018-05-21T16:09:10.442Z,36.40
2018-05-21T16:11:38.604Z,36.30
2018-05-21T16:14:06.751Z,37.00
2018-05-21T16:16:34.910Z,36.30
2018-05-21T16:19:03.060Z,38.10
2018-05-21T16:21:31.986Z,39.70
2018-05-21T16:24:00.129Z,39.70
2018-05-21T16:26:29.144Z,38.90
2018-05-21T16:28:57.284Z,38.90
2018-05-21T16:31:26.210Z,39.20
2018-05-21T16:33:54.359Z,39.20
2018-05-21T16:36:24.212Z,39.90
2018-05-21T16:38:52.351Z,39.90
2018-05-21T16:41:21.289Z,38.60
2018-05-21T16:43:49.772Z,38.50
2018-05-21T16:46:17.938Z,41.20
2018-05-21T16:48:46.082Z,45.80
2018-05-21T16:51:14.242Z,48.20
2018-05-21T16:53:43.221Z,49.30
2018-05-21T16:56:12.639Z,49.20
2018-05-21T16:58:41.545Z,49.80
2018-05-21T17:01:09.700Z,49.80
2018-05-21T17:03:38.612Z,50.40
2018-05-21T17:06:06.843Z,50.40
2018-05-21T17:08:34.996Z,51.50
2018-05-21T17:11:03.159Z,52.60
2018-05-21T17:13:31.303Z,53.50
2018-05-21T17:15:59.516Z,54.80
2018-05-21T17:18:27.643Z,55.60
2018-05-21T17:20:55.816Z,54.70
2018-05-21T17:23:23.968Z,54.10
2018-05-21T17:25:52.270Z,54.10
2018-05-21T17:28:20.433Z,55.20
2018-05-21T17:30:49.375Z,56.40
2018-05-21T17:33:17.539Z,56.40
2018-05-21T17:35:45.768Z,56.60
2018-05-21T17:38:13.896Z,56.00
2018-05-21T17:40:42.044Z,55.40
2018-05-21T17:43:10.203Z,56.10
2018-05-21T17:45:38.348Z,57.60
2018-05-21T17:48:07.300Z,56.60
2018-05-21T17:50:35.436Z,56.50
2018-05-21T17:53:04.364Z,56.60
2018-05-21T17:55:32.544Z,56.60
2018-05-21T17:58:00.715Z,57.50
2018-05-21T18:00:28.857Z,58.10
2018-05-21T18:02:57.031Z,58.70
2018-05-21T18:05:25.268Z,58.90
2018-05-21T18:07:53.436Z,59.20
2018-05-21T18:10:21.583Z,59.30
2018-05-21T18:12:49.742Z,59.60
2018-05-21T18:15:17.952Z,59.90
2018-05-21T18:17:46.115Z,59.50
2018-05-21T18:20:14.273Z,60.30
2018-05-21T18:22:42.443Z,60.00
2018-05-21T18:25:10.600Z,60.30
2018-05-21T18:27:38.771Z,61.70
2018-05-21T18:30:06.967Z,61.70
2018-05-21T18:32:35.864Z,62.00
2018-05-21T18:35:04.010Z,61.90
2018-05-21T18:37:32.188Z,62.00
2018-05-21T18:40:00.359Z,62.60
2018-05-21T18:42:29.290Z,63.00
2018-05-21T18:44:57.459Z,63.00
2018-05-21T18:47:25.600Z,62.00
2018-05-21T18:49:53.785Z,62.50
2018-05-21T18:52:23.636Z,62.70
2018-05-21T18:54:53.068Z,62.70
2018-05-21T18:57:21.984Z,62.30
2018-05-21T18:59:50.153Z,62.30
2018-05-21T19:02:18.306Z,62.00
2018-05-21T19:04:46.590Z,62.40
2018-05-21T19:07:15.487Z,61.70
2018-05-21T19:09:44.440Z,62.30
2018-05-21T19:12:12.599Z,62.30
2018-05-21T19:14:40.799Z,61.80
2018-05-21T19:17:08.948Z,63.10
2018-05-21T19:19:37.127Z,61.20
2018-05-21T19:22:05.271Z,61.60
2018-05-21T19:24:33.444Z,61.60
2018-05-21T19:27:01.612Z,62.80
2018-05-21T19:29:29.804Z,63.80
2018-05-21T19:31:57.952Z,65.60
2018-05-21T19:34:26.878Z,65.20
2018-05-21T19:36:55.032Z,65.20
2018-05-21T19:39:23.199Z,65.80
2018-05-21T19:41:51.350Z,69.40
2018-05-21T19:44:19.649Z,72.10
2018-05-21T19:46:47.767Z,74.90
2018-05-21T19:49:17.160Z,67.80
2018-05-21T19:51:45.336Z,67.80
2018-05-21T19:54:13.636Z,66.70
2018-05-21T19:56:41.792Z,67.10
2018-05-21T19:59:11.800Z,67.20
2018-05-21T20:01:39.940Z,67.10
2018-05-21T20:04:08.106Z,68.00
2018-05-21T20:06:36.292Z,67.80
2018-05-21T20:09:05.275Z,68.00
2018-05-21T20:11:33.460Z,66.00
2018-05-21T20:14:01.666Z,64.40
2018-05-21T20:16:29.828Z,64.00
2018-05-21T20:18:57.968Z,64.90
2018-05-21T20:21:26.138Z,64.80
2018-05-21T20:23:54.364Z,66.30
2018-05-21T20:26:22.536Z,65.00
2018-05-21T20:28:50.679Z,63.50
2018-05-21T20:31:18.868Z,62.50
2018-05-21T20:33:47.020Z,63.00
2018-05-21T20:36:15.189Z,62.90
2018-05-21T20:38:43.359Z,63.40
2018-05-21T20:41:12.296Z,63.10
2018-05-21T20:43:40.527Z,63.10
2018-05-21T20:46:08.692Z,63.80
2018-05-21T20:48:36.844Z,64.00
2018-05-21T20:51:05.028Z,65.00
2018-05-21T20:53:33.286Z,65.60
2018-05-21T20:56:01.484Z,66.30
2018-05-21T20:58:30.412Z,71.00
2018-05-21T21:00:58.583Z,70.90
2018-05-21T21:03:26.728Z,73.60
2018-05-21T21:05:55.659Z,73.90
2018-05-21T21:08:23.811Z,73.90
2018-05-21T21:10:51.975Z,73.30
2018-05-21T21:13:20.889Z,76.10
2018-05-21T21:15:49.063Z,76.10
2018-05-21T21:18:17.213Z,76.90
2018-05-21T21:20:46.152Z,80.60
2018-05-21T21:23:14.549Z,80.50
2018-05-21T21:25:42.682Z,82.60
2018-05-21T21:28:10.878Z,81.70
2018-05-21T21:30:39.043Z,82.60
2018-05-21T21:33:07.475Z,82.00
2018-05-21T21:35:36.231Z,83.60
2018-05-21T21:38:04.404Z,83.40
2018-05-21T21:40:32.547Z,83.20
2018-05-21T21:43:00.722Z,85.90
2018-05-21T21:45:28.871Z,85.90
2018-05-21T21:47:57.060Z,84.90
2018-05-21T21:50:25.215Z,85.40
2018-05-21T21:52:53.480Z,86.30
2018-05-21T21:55:21.646Z,86.40
2018-05-21T21:57:49.796Z,85.70
2018-05-21T22:00:17.965Z,85.80
2018-05-21T22:02:46.954Z,85.50
2018-05-21T22:05:15.095Z,85.40
2018-05-21T22:07:43.276Z,86.80
2018-05-21T22:10:11.425Z,88.00
2018-05-21T22:12:40.369Z,87.90
2018-05-21T22:15:08.527Z,87.80
2018-05-21T22:17:36.704Z,87.80
2018-05-21T22:20:04.883Z,86.90
2018-05-21T22:22:33.063Z,87.00
2018-05-21T22:25:01.217Z,86.40
2018-05-21T22:27:29.399Z,86.70
2018-05-21T22:29:57.549Z,87.00
2018-05-21T22:32:25.723Z,86.80
2018-05-21T22:34:53.891Z,87.70
2018-05-21T22:37:22.824Z,89.80
2018-05-21T22:39:50.966Z,89.80
2018-05-21T22:42:19.160Z,90.90
2018-05-21T22:44:47.322Z,91.10
2018-05-21T22:47:15.472Z,90.90
2018-05-21T22:49:43.680Z,90.50
2018-05-21T22:52:11.874Z,90.20
2018-05-21T22:54:40.044Z,90.30
2018-05-21T22:57:08.208Z,90.00
2018-05-21T22:59:36.383Z,90.10
2018-05-21T23:02:05.397Z,90.50
2018-05-21T23:04:33.670Z,90.10
2018-05-21T23:07:01.827Z,90.10
2018-05-21T23:09:30.000Z,90.40
2018-05-21T23:11:58.146Z,90.60
2018-05-21T23:14:26.343Z,90.60
2018-05-21T23:16:54.492Z,90.70
2018-05-21T23:19:22.663Z,90.90
2018-05-21T23:21:51.671Z,90.30
2018-05-21T23:24:19.845Z,90.30
2018-05-21T23:26:47.988Z,90.20
2018-05-21T23:29:16.922Z,90.30
2018-05-21T23:31:45.160Z,90.30
2018-05-21T23:34:14.099Z,91.20
2018-05-21T23:36:42.264Z,91.20
2018-05-21T23:39:11.079Z,91.40
2018-05-21T23:41:39.228Z,91.20
2018-05-21T23:44:07.430Z,91.20
2018-05-21T23:46:35.587Z,91.80
2018-05-21T23:49:03.765Z,91.80
2018-05-21T23:51:31.921Z,91.50
2018-05-21T23:54:00.102Z,91.20
2018-05-21T23:56:28.247Z,91.20
2018-05-21T23:58:57.206Z,91.00
